首页
METAR-TAF:

METAR-TAF

机场 :

Hunt Field

Lander, 怀俄明州, 美国

纬度: 42-48-53N, 经度: 108-43-41W, 海拔: 1703米

当前天气观测

该预报发布于23分钟前的06:53 UTC
温度 -2°C
湿度 59%
气压 1010 hPa
能見度: 16.1公里
天空无云

METAR: KLND 170653Z AUTO 10SM CLR M02/M09 A2983 RMK AO2 SLP118 T10221089 400331117

时间: 00:16 (07:16 UTC)

预报

该预报发布于1小时和56分钟前的05:20 UTC
预报有效从17日的 06点(UTC)到 18日的 06点(UTC)
风速5节,风向西
能見度: 10公里
少量云层高于20000英尺
从 17日的 1700点(UTC)
风速5节,风向多变
能見度: 10公里
少量云层高于20000英尺

TAF: KLND 170520Z 1706/1806 28005KT P6SM FEW200 FM171700 VRB05KT P6SM FEW200

超过4000个机场的气象观测和天气预报(METAR&TAF报告)。

可查询的气象台以黄色和红色小点在地图上表示。

将鼠标移到小点上方,可查看气象台名称。

然后点击查看天气观测和预报。

如需切换地图:点击带黑十字的绿色按钮放大地图;点击带横线的绿色按钮缩小地图;或者点击绿色箭头查看邻近地区的地图。


METAR-TAF: